createdAt,value
2018-07-08T00:01:33.135Z,14.80
2018-07-08T00:04:01.616Z,14.70
2018-07-08T00:06:30.095Z,14.70
2018-07-08T00:08:58.604Z,14.60
2018-07-08T00:11:27.093Z,14.60
2018-07-08T00:13:55.597Z,14.50
2018-07-08T00:16:24.130Z,14.50
2018-07-08T00:18:52.673Z,14.50
2018-07-08T00:21:21.145Z,14.40
2018-07-08T00:23:49.637Z,14.30
2018-07-08T00:26:18.106Z,14.30
2018-07-08T00:28:46.635Z,14.30
2018-07-08T00:31:15.125Z,14.20
2018-07-08T00:33:43.635Z,14.20
2018-07-08T00:36:12.073Z,14.10
2018-07-08T00:38:40.562Z,14.10
2018-07-08T00:43:37.167Z,14.10
2018-07-08T00:46:05.714Z,14.00
2018-07-08T00:48:34.173Z,13.90
2018-07-08T00:51:02.661Z,13.80
2018-07-08T00:53:31.118Z,13.90
2018-07-08T00:55:59.591Z,13.90
2018-07-08T00:58:28.046Z,14.00
2018-07-08T01:00:56.558Z,14.00
2018-07-08T01:03:25.019Z,13.90
2018-07-08T01:05:53.517Z,13.70
2018-07-08T01:08:21.989Z,13.60
2018-07-08T01:10:50.480Z,13.60
2018-07-08T01:13:18.955Z,13.60
2018-07-08T01:15:47.439Z,13.50
2018-07-08T01:18:15.918Z,13.50
2018-07-08T01:20:44.405Z,13.50
2018-07-08T01:23:12.879Z,13.50
2018-07-08T01:25:52.634Z,13.50
2018-07-08T01:28:21.085Z,13.50
2018-07-08T01:30:49.566Z,13.40
2018-07-08T01:33:18.026Z,13.40
2018-07-08T01:35:46.507Z,13.30
2018-07-08T01:38:14.977Z,13.20
2018-07-08T01:40:43.434Z,13.10
2018-07-08T01:43:11.926Z,13.10
2018-07-08T01:45:40.407Z,13.10
2018-07-08T01:48:08.858Z,13.10
2018-07-08T01:53:05.665Z,13.10
2018-07-08T01:55:34.199Z,13.10
2018-07-08T02:00:30.853Z,13.00
2018-07-08T02:02:59.439Z,13.00
2018-07-08T02:05:28.031Z,12.90
2018-07-08T02:07:57.058Z,12.90
2018-07-08T02:10:25.609Z,12.80
2018-07-08T02:12:54.124Z,12.80
2018-07-08T02:15:22.965Z,12.70
2018-07-08T02:22:47.866Z,12.80
2018-07-08T02:25:16.329Z,12.70
2018-07-08T02:27:44.794Z,12.60
2018-07-08T02:30:13.250Z,12.60
2018-07-08T02:32:41.722Z,12.60
2018-07-08T02:35:10.190Z,12.50
2018-07-08T02:37:38.644Z,12.50
2018-07-08T02:40:07.128Z,12.50
2018-07-08T02:42:35.583Z,12.60
2018-07-08T02:45:04.082Z,12.60
2018-07-08T02:47:32.598Z,12.60
2018-07-08T02:50:01.082Z,12.50
2018-07-08T02:54:57.704Z,12.50
2018-07-08T02:57:26.158Z,12.40
2018-07-08T02:59:54.606Z,12.40
2018-07-08T03:02:23.027Z,12.40
2018-07-08T03:04:51.497Z,12.30
2018-07-08T03:07:19.946Z,12.30
2018-07-08T03:09:48.389Z,12.40
2018-07-08T03:12:16.809Z,12.30
2018-07-08T03:14:45.241Z,12.30
2018-07-08T03:17:13.684Z,12.20
2018-07-08T03:19:42.158Z,12.20
2018-07-08T03:22:10.618Z,12.20
2018-07-08T03:24:39.080Z,12.00
2018-07-08T03:27:07.590Z,12.00
2018-07-08T03:29:36.044Z,11.90
2018-07-08T03:34:32.626Z,12.00
2018-07-08T03:37:01.143Z,12.00
2018-07-08T03:39:29.585Z,12.00
2018-07-08T03:41:58.074Z,12.00
2018-07-08T03:44:26.513Z,12.00
2018-07-08T03:49:23.125Z,12.00
2018-07-08T03:51:51.573Z,12.00
2018-07-08T03:54:28.873Z,12.00
2018-07-08T03:56:57.390Z,12.00
2018-07-08T03:59:25.856Z,12.00
2018-07-08T04:01:54.745Z,12.10
2018-07-08T04:04:23.197Z,12.10
2018-07-08T04:06:51.654Z,12.20
2018-07-08T04:11:49.151Z,12.20
2018-07-08T04:14:17.605Z,12.30
2018-07-08T04:16:46.717Z,12.30
2018-07-08T04:19:15.212Z,12.40
2018-07-08T04:21:43.665Z,12.50
2018-07-08T04:24:12.249Z,12.50
2018-07-08T04:26:40.718Z,12.60
2018-07-08T04:29:09.145Z,12.70
2018-07-08T04:31:37.602Z,12.70
2018-07-08T04:34:06.264Z,12.60
2018-07-08T04:39:03.108Z,12.70
2018-07-08T04:41:31.530Z,12.80
2018-07-08T04:43:59.955Z,13.00
2018-07-08T04:46:28.365Z,13.00
2018-07-08T04:51:25.173Z,13.20
2018-07-08T04:53:53.681Z,13.30
2018-07-08T04:56:22.142Z,13.30
2018-07-08T04:58:50.613Z,13.40
2018-07-08T05:01:19.052Z,13.40
2018-07-08T05:03:47.534Z,13.50
2018-07-08T05:06:15.998Z,13.60
2018-07-08T05:08:44.534Z,13.70
2018-07-08T05:11:12.952Z,13.80
2018-07-08T05:13:41.410Z,13.90
2018-07-08T05:16:09.838Z,14.00
2018-07-08T05:18:38.351Z,14.00
2018-07-08T05:21:07.413Z,14.10
2018-07-08T05:23:35.870Z,14.20
2018-07-08T05:28:32.445Z,14.30
2018-07-08T05:31:00.878Z,14.50
2018-07-08T05:33:29.282Z,14.60
2018-07-08T05:38:25.833Z,14.70
2018-07-08T05:43:22.411Z,15.00
2018-07-08T05:45:50.893Z,15.10
2018-07-08T05:48:19.353Z,15.20
2018-07-08T05:53:15.901Z,15.40
2018-07-08T05:58:12.459Z,15.60
2018-07-08T06:00:40.929Z,15.70
2018-07-08T06:03:09.390Z,15.80
2018-07-08T06:05:37.858Z,15.90
2018-07-08T06:08:06.413Z,16.00
2018-07-08T06:10:34.890Z,16.10
2018-07-08T06:13:03.323Z,16.20
2018-07-08T06:15:31.798Z,16.40
2018-07-08T06:18:00.237Z,16.50
2018-07-08T06:20:28.729Z,16.70
2018-07-08T06:22:57.183Z,16.80
2018-07-08T06:25:25.653Z,16.90
2018-07-08T06:27:54.117Z,17.00
2018-07-08T06:30:22.573Z,17.20
2018-07-08T06:32:51.025Z,17.40
2018-07-08T06:35:19.461Z,17.60
2018-07-08T06:37:47.906Z,17.70
2018-07-08T06:40:16.333Z,17.80
2018-07-08T06:42:44.812Z,18.00
2018-07-08T06:45:13.233Z,18.20
2018-07-08T06:47:41.697Z,18.30
2018-07-08T06:50:10.158Z,18.40
2018-07-08T06:52:38.605Z,18.60
2018-07-08T06:57:35.170Z,18.80
2018-07-08T07:00:03.671Z,18.80
2018-07-08T07:02:32.126Z,18.90
2018-07-08T07:05:00.585Z,19.00
2018-07-08T07:07:29.121Z,19.20
2018-07-08T07:09:57.643Z,19.30
2018-07-08T07:12:26.099Z,19.40
2018-07-08T07:14:54.521Z,19.50
2018-07-08T07:17:23.030Z,19.60
2018-07-08T07:19:51.442Z,19.70
2018-07-08T07:22:19.925Z,19.80
2018-07-08T07:24:48.377Z,19.90
2018-07-08T07:27:16.814Z,19.90
2018-07-08T07:32:13.411Z,20.10
2018-07-08T07:34:41.894Z,20.20
2018-07-08T07:37:10.458Z,20.30
2018-07-08T07:39:38.857Z,20.50
2018-07-08T07:42:07.337Z,20.50
2018-07-08T07:44:36.130Z,20.50
2018-07-08T07:47:04.604Z,20.50
2018-07-08T07:49:33.061Z,20.70
2018-07-08T07:52:01.586Z,20.70
2018-07-08T07:54:30.148Z,20.90
2018-07-08T07:56:58.650Z,20.90
2018-07-08T07:59:27.102Z,20.90
2018-07-08T08:01:55.525Z,21.10
2018-07-08T08:04:23.997Z,21.10
2018-07-08T08:06:52.703Z,21.20
2018-07-08T08:09:21.171Z,21.40
2018-07-08T08:11:49.657Z,21.40
2018-07-08T08:14:18.130Z,21.40
2018-07-08T08:16:46.621Z,21.50
2018-07-08T08:19:15.071Z,21.40
2018-07-08T08:21:43.529Z,21.50
2018-07-08T08:24:11.991Z,21.60
2018-07-08T08:26:40.479Z,21.60
2018-07-08T08:29:08.895Z,21.80
2018-07-08T08:31:37.404Z,21.90
2018-07-08T08:35:15.976Z,22.00
2018-07-08T08:37:49.702Z,22.20
2018-07-08T08:40:21.393Z,22.20
2018-07-08T08:45:19.083Z,22.70
2018-07-08T08:50:16.034Z,22.70
2018-07-08T08:55:13.108Z,22.90
2018-07-08T09:00:11.182Z,23.20
2018-07-08T09:05:08.006Z,23.50
2018-07-08T09:07:36.462Z,23.60
2018-07-08T09:10:05.106Z,23.50
2018-07-08T09:12:33.590Z,23.50
2018-07-08T09:17:30.203Z,24.00
2018-07-08T09:19:58.654Z,23.80
2018-07-08T09:22:27.079Z,24.10
2018-07-08T09:24:55.530Z,23.90
2018-07-08T09:27:24.043Z,23.50
2018-07-08T09:29:52.527Z,23.60
2018-07-08T09:32:20.973Z,24.00
2018-07-08T09:34:49.403Z,24.00
2018-07-08T09:37:17.814Z,24.10
2018-07-08T09:39:46.261Z,24.20
2018-07-08T09:44:42.826Z,24.10
2018-07-08T09:47:11.227Z,24.00
2018-07-08T09:49:39.672Z,24.20
2018-07-08T09:52:08.087Z,24.70
2018-07-08T09:54:36.537Z,25.30
2018-07-08T10:02:01.306Z,26.50
2018-07-08T10:04:29.834Z,26.60
2018-07-08T10:06:58.237Z,26.70
2018-07-08T10:09:26.705Z,26.40
2018-07-08T10:11:55.162Z,26.70
2018-07-08T10:14:24.369Z,26.20
2018-07-08T10:19:21.607Z,26.30
2018-07-08T10:21:49.989Z,27.30
2018-07-08T10:24:18.445Z,27.80
2018-07-08T10:28:00.725Z,28.40
2018-07-08T10:30:29.305Z,29.20
2018-07-08T10:32:57.666Z,29.00
2018-07-08T10:35:37.310Z,29.30
2018-07-08T10:38:06.426Z,29.30
2018-07-08T10:40:34.857Z,28.80
2018-07-08T10:43:03.351Z,28.60
2018-07-08T10:45:31.823Z,29.20
2018-07-08T10:48:00.305Z,30.00
2018-07-08T10:50:28.747Z,30.60
2018-07-08T10:52:57.226Z,30.80
2018-07-08T10:55:25.724Z,30.30
2018-07-08T10:57:54.184Z,30.00
2018-07-08T11:00:22.644Z,30.30
2018-07-08T11:02:51.118Z,30.10
2018-07-08T11:05:19.562Z,30.00
2018-07-08T11:07:48.050Z,28.40
2018-07-08T11:10:16.613Z,28.50
2018-07-08T11:12:46.030Z,30.10
2018-07-08T11:15:14.509Z,30.60
2018-07-08T11:17:43.069Z,31.60
2018-07-08T11:20:11.606Z,31.90
2018-07-08T11:22:40.091Z,30.50
2018-07-08T11:25:08.572Z,30.70
2018-07-08T11:27:37.362Z,30.90
2018-07-08T11:30:06.568Z,31.60
2018-07-08T11:32:35.505Z,30.70
2018-07-08T11:35:04.146Z,31.40
2018-07-08T11:37:32.681Z,31.10
2018-07-08T11:40:01.222Z,30.80
2018-07-08T11:42:29.716Z,30.70
2018-07-08T11:44:58.289Z,30.70
2018-07-08T11:47:26.815Z,29.70
2018-07-08T11:49:55.392Z,29.00
2018-07-08T11:52:24.027Z,29.30
2018-07-08T11:54:52.578Z,30.00
2018-07-08T11:57:21.049Z,30.10
2018-07-08T11:59:49.580Z,30.50
2018-07-08T12:02:18.111Z,30.30
2018-07-08T12:07:15.213Z,29.80
2018-07-08T12:09:43.904Z,29.60
2018-07-08T12:12:12.454Z,29.20
2018-07-08T12:14:41.000Z,29.10
2018-07-08T12:17:09.520Z,29.10
2018-07-08T12:19:38.091Z,29.00
2018-07-08T12:24:34.840Z,29.30
2018-07-08T12:27:03.371Z,29.50
2018-07-08T12:29:31.925Z,29.50
2018-07-08T12:32:00.414Z,29.20
2018-07-08T12:34:28.914Z,29.80
2018-07-08T12:36:58.030Z,29.80
2018-07-08T12:39:26.525Z,29.30
2018-07-08T12:41:54.975Z,28.70
2018-07-08T12:44:23.471Z,28.90
2018-07-08T12:46:51.922Z,28.70
2018-07-08T12:49:20.369Z,28.90
2018-07-08T12:54:17.005Z,29.00
2018-07-08T12:56:45.482Z,29.10
2018-07-08T12:59:13.894Z,27.80
2018-07-08T13:01:42.331Z,28.40
2018-07-08T13:04:10.766Z,28.40
2018-07-08T13:06:39.236Z,28.40
2018-07-08T13:09:07.766Z,28.70
2018-07-08T13:11:36.228Z,28.70
2018-07-08T13:14:04.715Z,29.40
2018-07-08T13:16:33.253Z,30.10
2018-07-08T13:19:01.737Z,30.10
2018-07-08T13:21:30.215Z,29.90
2018-07-08T13:23:58.648Z,30.00
2018-07-08T13:26:27.146Z,29.40
2018-07-08T13:28:55.603Z,29.80
2018-07-08T13:31:24.071Z,29.40
2018-07-08T13:33:52.497Z,29.70
2018-07-08T13:36:20.970Z,30.40
2018-07-08T13:38:49.440Z,31.20
2018-07-08T13:41:17.905Z,32.40
2018-07-08T13:43:46.426Z,33.60
2018-07-08T13:48:43.015Z,35.60
2018-07-08T13:51:11.477Z,35.00
2018-07-08T13:53:40.010Z,35.00
2018-07-08T13:56:08.574Z,35.40
2018-07-08T13:58:37.103Z,35.50
2018-07-08T14:03:33.855Z,34.70
2018-07-08T14:06:02.386Z,35.00
2018-07-08T14:08:30.950Z,35.80
2018-07-08T14:10:59.378Z,35.20
2018-07-08T14:13:27.861Z,33.40
2018-07-08T14:15:56.339Z,34.70
2018-07-08T14:18:24.816Z,36.40
2018-07-08T14:20:53.453Z,34.90
2018-07-08T14:23:21.913Z,34.10
2018-07-08T14:28:18.530Z,34.60
2018-07-08T14:30:46.971Z,35.30
2018-07-08T14:33:15.422Z,35.00
2018-07-08T14:35:43.842Z,36.50
2018-07-08T14:38:12.262Z,36.50
2018-07-08T14:40:40.788Z,35.30
2018-07-08T14:43:09.256Z,35.90
2018-07-08T14:45:37.697Z,36.40
2018-07-08T14:48:06.177Z,35.70
2018-07-08T14:50:34.630Z,34.10
2018-07-08T14:53:03.082Z,34.80
2018-07-08T14:55:31.554Z,35.80
2018-07-08T14:58:00.015Z,35.60
2018-07-08T15:02:56.830Z,36.20
2018-07-08T15:05:25.300Z,35.60
2018-07-08T15:07:54.059Z,34.90
2018-07-08T15:10:22.542Z,34.20
2018-07-08T15:12:51.017Z,36.40
2018-07-08T15:15:19.555Z,37.90
2018-07-08T15:17:48.025Z,37.40
2018-07-08T15:20:16.568Z,35.80
2018-07-08T15:22:45.119Z,36.10
2018-07-08T15:27:41.734Z,36.00
2018-07-08T15:30:10.190Z,37.00
2018-07-08T15:32:38.674Z,36.30
2018-07-08T15:35:07.162Z,36.80
2018-07-08T15:37:35.632Z,36.70
2018-07-08T15:40:04.149Z,36.30
2018-07-08T15:42:32.590Z,35.70
2018-07-08T15:45:01.083Z,36.00
2018-07-08T15:47:29.564Z,35.30
2018-07-08T15:49:57.985Z,32.20
2018-07-08T15:52:26.514Z,29.90
2018-07-08T15:54:55.071Z,28.70
2018-07-08T15:57:23.530Z,28.40
2018-07-08T15:59:51.969Z,27.80
2018-07-08T16:02:20.453Z,27.30
2018-07-08T16:04:48.894Z,26.90
2018-07-08T16:09:45.469Z,26.40
2018-07-08T16:12:13.906Z,26.40
2018-07-08T16:14:42.345Z,26.10
2018-07-08T16:17:10.793Z,26.00
2018-07-08T16:19:39.269Z,25.80
2018-07-08T16:22:07.729Z,25.70
2018-07-08T16:24:36.167Z,25.80
2018-07-08T16:27:04.730Z,26.30
2018-07-08T16:29:33.206Z,26.10
2018-07-08T16:32:01.735Z,25.60
2018-07-08T16:34:30.286Z,25.50
2018-07-08T16:36:58.738Z,25.50
2018-07-08T16:39:27.249Z,25.40
2018-07-08T16:41:55.713Z,25.30
2018-07-08T16:44:29.408Z,25.10
2018-07-08T16:46:57.855Z,24.90
2018-07-08T16:49:26.324Z,24.70
2018-07-08T16:51:54.853Z,24.50
2018-07-08T16:54:23.314Z,24.40
2018-07-08T17:01:48.097Z,24.00
2018-07-08T17:04:16.568Z,23.80
2018-07-08T17:06:45.224Z,23.70
2018-07-08T17:09:13.682Z,23.70
2018-07-08T17:11:42.157Z,23.50
2018-07-08T17:14:10.645Z,23.40
2018-07-08T17:16:39.106Z,23.30
2018-07-08T17:21:35.774Z,23.20
2018-07-08T17:24:04.198Z,23.00
2018-07-08T17:26:32.740Z,23.00
2018-07-08T17:29:01.115Z,22.90
2018-07-08T17:33:57.802Z,22.80
2018-07-08T17:36:26.564Z,22.70
2018-07-08T17:38:55.042Z,22.60
2018-07-08T17:41:23.558Z,22.60
2018-07-08T17:43:52.069Z,22.50
2018-07-08T17:46:20.628Z,22.40
2018-07-08T17:48:49.114Z,22.30
2018-07-08T17:51:17.675Z,22.20
2018-07-08T17:53:46.183Z,22.10
2018-07-08T17:56:15.270Z,22.00
2018-07-08T17:58:43.741Z,22.10
2018-07-08T18:01:12.221Z,22.10
2018-07-08T18:03:40.742Z,22.00
2018-07-08T18:06:09.217Z,21.90
2018-07-08T18:08:37.671Z,21.70
2018-07-08T18:11:06.147Z,21.60
2018-07-08T18:13:34.625Z,21.60
2018-07-08T18:16:03.113Z,21.60
2018-07-08T18:18:31.730Z,21.50
2018-07-08T18:21:00.211Z,21.40
2018-07-08T18:23:28.749Z,21.50
2018-07-08T18:25:57.194Z,21.40
2018-07-08T18:28:25.661Z,21.30
2018-07-08T18:33:22.325Z,21.10
2018-07-08T18:35:50.791Z,21.00
2018-07-08T18:40:48.451Z,20.80
2018-07-08T18:43:16.970Z,20.80
2018-07-08T18:45:45.530Z,20.70
2018-07-08T18:48:14.038Z,20.60
2018-07-08T18:50:42.674Z,20.50
2018-07-08T18:53:11.222Z,20.40
2018-07-08T18:55:39.753Z,20.40
2018-07-08T19:00:36.464Z,20.30
2018-07-08T19:03:04.948Z,20.20
2018-07-08T19:05:33.533Z,20.20
2018-07-08T19:08:01.989Z,20.10
2018-07-08T19:10:30.473Z,20.10
2018-07-08T19:12:58.961Z,19.90
2018-07-08T19:15:27.549Z,19.90
2018-07-08T19:17:57.404Z,19.80
2018-07-08T19:20:25.995Z,19.70
2018-07-08T19:25:22.908Z,19.40
2018-07-08T19:27:51.530Z,19.40
2018-07-08T19:30:20.081Z,19.30
2018-07-08T19:32:48.858Z,19.20
2018-07-08T19:35:17.451Z,19.00
2018-07-08T19:37:46.065Z,18.90
2018-07-08T19:40:14.661Z,18.80
2018-07-08T19:47:39.629Z,18.50
2018-07-08T19:50:08.255Z,18.40
2018-07-08T19:52:36.926Z,18.30
2018-07-08T19:55:05.574Z,18.30
2018-07-08T19:57:34.222Z,18.20
2018-07-08T20:02:31.097Z,17.90
2018-07-08T20:04:59.695Z,17.80
2018-07-08T20:07:28.397Z,17.70
2018-07-08T20:12:25.189Z,17.60
2018-07-08T20:14:54.036Z,17.50
2018-07-08T20:17:23.276Z,17.30
2018-07-08T20:22:20.886Z,17.00
2018-07-08T20:24:49.430Z,16.90
2018-07-08T20:27:17.982Z,16.90
2018-07-08T20:29:46.540Z,16.90
2018-07-08T20:32:15.134Z,16.80
2018-07-08T20:34:44.138Z,16.70
2018-07-08T20:37:12.744Z,16.70
2018-07-08T20:39:41.343Z,16.60
2018-07-08T20:42:09.927Z,16.60
2018-07-08T20:44:38.561Z,16.50
2018-07-08T20:47:07.180Z,16.50
2018-07-08T20:49:35.935Z,16.50
2018-07-08T20:52:04.523Z,16.40
2018-07-08T20:54:33.101Z,16.30
2018-07-08T20:57:01.630Z,16.20
2018-07-08T20:59:30.278Z,16.30
2018-07-08T21:01:58.841Z,16.30
2018-07-08T21:04:28.101Z,16.30
2018-07-08T21:06:56.934Z,16.20
2018-07-08T21:09:25.530Z,16.10
2018-07-08T21:11:54.118Z,16.10
2018-07-08T21:14:22.745Z,16.20
2018-07-08T21:19:19.676Z,16.00
2018-07-08T21:21:48.272Z,15.90
2018-07-08T21:24:16.926Z,15.90
2018-07-08T21:26:45.531Z,15.80
2018-07-08T21:29:14.203Z,15.70
2018-07-08T21:31:42.782Z,15.70
2018-07-08T21:34:11.401Z,15.70
2018-07-08T21:36:39.967Z,15.70
2018-07-08T21:39:10.091Z,15.60
2018-07-08T21:41:39.009Z,15.60
2018-07-08T21:44:07.779Z,15.60
2018-07-08T21:51:33.055Z,15.50
2018-07-08T21:54:01.939Z,15.60
2018-07-08T21:56:30.617Z,15.50
2018-07-08T21:58:59.298Z,15.50
2018-07-08T22:03:57.446Z,15.30
2018-07-08T22:06:26.055Z,15.30
2018-07-08T22:08:54.659Z,15.20
2018-07-08T22:11:23.222Z,15.20
2018-07-08T22:13:51.766Z,15.20
2018-07-08T22:16:20.402Z,15.10
2018-07-08T22:21:17.278Z,15.10
2018-07-08T22:23:45.900Z,15.00
2018-07-08T22:26:14.529Z,15.00
2018-07-08T22:28:43.190Z,14.90
2018-07-08T22:31:12.060Z,14.90
2018-07-08T22:33:40.751Z,14.90
2018-07-08T22:36:09.390Z,14.80
2018-07-08T22:38:37.971Z,14.80
2018-07-08T22:41:06.651Z,14.70
2018-07-08T22:43:35.295Z,14.70
2018-07-08T22:46:03.923Z,14.70
2018-07-08T22:48:32.515Z,14.70
2018-07-08T22:51:01.239Z,14.60
2018-07-08T22:53:29.914Z,14.60
2018-07-08T22:55:58.552Z,14.60
2018-07-08T22:58:27.132Z,14.40
2018-07-08T23:01:06.895Z,14.30
2018-07-08T23:04:06.811Z,14.20
2018-07-08T23:06:35.449Z,14.20
2018-07-08T23:09:05.396Z,14.10
2018-07-08T23:11:33.999Z,14.10
2018-07-08T23:14:02.578Z,14.20
2018-07-08T23:16:31.310Z,14.20
2018-07-08T23:18:59.958Z,14.20
2018-07-08T23:21:28.509Z,14.20
2018-07-08T23:23:57.138Z,14.10
2018-07-08T23:26:25.634Z,14.10
2018-07-08T23:28:54.150Z,14.10
2018-07-08T23:31:22.687Z,14.00
2018-07-08T23:33:51.207Z,14.00
2018-07-08T23:36:19.762Z,14.00
2018-07-08T23:38:48.299Z,13.90
2018-07-08T23:41:16.834Z,14.00
2018-07-08T23:43:45.346Z,13.90
2018-07-08T23:46:13.893Z,13.90
2018-07-08T23:48:42.426Z,13.90
2018-07-08T23:51:10.991Z,13.80
2018-07-08T23:53:39.848Z,13.80
2018-07-08T23:56:08.342Z,13.80
2018-07-08T23:58:36.893Z,13.70
